Time;durP1;ratioP1;P1;durP2;ratioP2;P2;SDS_P1;SDS_P2;PMS_P1;PMS_P2;Temp;Humidity;BMP_temperature;BMP_pressure;BME280_temperature;BME280_humidity;BME280_pressure;Samples;Min_cycle;Max_cycle;Signal;HPM_P1;HPM_P2
2021/10/02 00:31:49;;;;;;;1.95;0.80;;;16.30;99.90;;;;;;5054214;28;20399;-59
2021/10/02 00:34:38;;;;;;;1.95;0.80;;;16.20;99.90;;;;;;5054634;28;20552;-59
2021/10/02 00:37:42;;;;;;;1.10;0.80;;;16.20;99.90;;;;;;5054492;28;20551;-58
2021/10/02 00:45:48;;;;;;;1.55;0.80;;;16.30;99.90;;;;;;5054215;28;20400;-59
2021/10/02 00:48:26;;;;;;;1.40;1.00;;;16.40;99.90;;;;;;5053636;28;20413;-59
2021/10/02 00:51:04;;;;;;;1.20;0.90;;;16.40;99.90;;;;;;5052128;28;20875;-59
2021/10/02 00:53:41;;;;;;;1.60;0.80;;;16.50;99.90;;;;;;5051920;28;20732;-60
2021/10/02 00:56:15;;;;;;;1.10;0.80;;;16.50;99.90;;;;;;5051083;28;20861;-58
2021/10/02 00:58:49;;;;;;;1.30;0.82;;;16.40;99.90;;;;;;5050517;28;20533;-59
2021/10/02 01:01:25;;;;;;;1.20;0.85;;;16.40;99.90;;;;;;5050075;28;20742;-57
2021/10/02 01:04:05;;;;;;;1.90;0.95;;;16.50;99.90;;;;;;5048973;28;20461;-59
2021/10/02 01:06:46;;;;;;;1.10;0.80;;;16.40;99.90;;;;;;5048650;28;20720;-59
2021/10/02 01:09:41;;;;;;;1.30;0.90;;;16.30;99.90;;;;;;5049634;28;20528;-59
2021/10/02 01:12:25;;;;;;;1.20;0.90;;;16.30;99.90;;;;;;5051690;28;20449;-57
2021/10/02 01:17:50;;;;;;;1.50;0.80;;;16.30;99.90;;;;;;5048408;28;20764;-59
2021/10/02 01:20:37;;;;;;;1.40;0.90;;;16.30;99.90;;;;;;5053262;28;20891;-58
2021/10/02 01:23:27;;;;;;;1.70;0.80;;;16.40;99.90;;;;;;5054851;28;20441;-58
2021/10/02 01:26:08;;;;;;;1.50;0.90;;;16.50;99.90;;;;;;5053323;28;20467;-58
2021/10/02 01:28:39;;;;;;;1.70;0.90;;;16.40;99.90;;;;;;5054825;28;20879;-58
2021/10/02 01:31:18;;;;;;;2.55;0.90;;;16.30;99.90;;;;;;5055095;28;20829;-58
2021/10/02 01:33:57;;;;;;;1.20;0.90;;;16.10;99.90;;;;;;5054972;28;20470;-58
2021/10/02 01:36:41;;;;;;;1.20;0.90;;;15.90;99.90;;;;;;5054974;28;20615;-57
2021/10/02 01:47:35;;;;;;;1.20;0.90;;;16.20;99.90;;;;;;5054031;28;20420;-58
2021/10/02 01:50:03;;;;;;;1.20;0.90;;;16.20;99.90;;;;;;5054739;28;20429;-58
2021/10/02 01:52:41;;;;;;;1.23;0.80;;;16.20;99.90;;;;;;5054560;28;20432;-58
2021/10/02 01:55:11;;;;;;;1.67;0.82;;;16.10;99.90;;;;;;5054209;28;20453;-58
2021/10/02 01:57:42;;;;;;;1.20;0.88;;;16.20;99.90;;;;;;5054053;28;20528;-58
2021/10/02 02:00:13;;;;;;;2.20;0.90;;;16.20;99.90;;;;;;5054659;28;20502;-58
2021/10/02 02:02:45;;;;;;;2.25;0.90;;;16.30;99.90;;;;;;5053946;28;20429;-58
2021/10/02 02:05:14;;;;;;;1.80;0.90;;;16.30;99.90;;;;;;5054015;28;20523;-58
2021/10/02 02:07:52;;;;;;;1.50;0.98;;;16.30;99.90;;;;;;5053072;28;20837;-58
2021/10/02 02:10:21;;;;;;;1.20;0.90;;;16.30;99.90;;;;;;5053076;28;20456;-59
2021/10/02 02:12:49;;;;;;;1.20;0.90;;;16.40;99.90;;;;;;5052697;28;20831;-58
2021/10/02 02:15:19;;;;;;;1.25;0.90;;;16.30;99.90;;;;;;5053884;28;20429;-58
2021/10/02 02:18:07;;;;;;;1.50;1.00;;;16.40;99.90;;;;;;5056743;28;20502;-58
2021/10/02 02:20:37;;;;;;;1.30;0.90;;;16.40;99.90;;;;;;5058149;28;20872;-59
2021/10/02 02:23:05;;;;;;;1.30;0.90;;;16.30;99.90;;;;;;5058532;28;20456;-58
2021/10/02 02:25:34;;;;;;;1.70;0.80;;;16.20;99.90;;;;;;5057886;28;20461;-59
2021/10/02 02:28:02;;;;;;;1.30;0.90;;;16.20;99.90;;;;;;5057847;28;20508;-58
2021/10/02 02:30:32;;;;;;;1.30;0.90;;;16.20;99.90;;;;;;5056223;28;20428;-58
2021/10/02 02:33:00;;;;;;;1.20;0.90;;;16.30;99.90;;;;;;5056222;28;20425;-58
2021/10/02 02:35:27;;;;;;;1.25;0.82;;;16.30;99.90;;;;;;5056535;28;20775;-58
2021/10/02 02:37:55;;;;;;;1.50;1.00;;;16.30;99.90;;;;;;5056983;28;20512;-58
2021/10/02 02:40:23;;;;;;;1.27;0.88;;;16.30;99.90;;;;;;5056154;28;20464;-58
2021/10/02 02:42:51;;;;;;;1.50;0.90;;;16.10;99.90;;;;;;5057058;28;20414;-58
2021/10/02 02:45:20;;;;;;;1.20;0.80;;;15.90;99.90;;;;;;5057923;28;20460;-59
2021/10/02 02:48:20;;;;;;;1.40;0.90;;;15.90;99.90;;;;;;5057799;28;20453;-58
2021/10/02 02:50:52;;;;;;;1.35;0.95;;;15.80;99.90;;;;;;5055747;28;20453;-57
2021/10/02 02:53:28;;;;;;;1.50;0.90;;;15.80;99.90;;;;;;5056114;28;20499;-58
2021/10/02 02:55:59;;;;;;;1.60;0.90;;;16.00;99.90;;;;;;5056628;28;20444;-58
2021/10/02 02:58:28;;;;;;;1.30;0.90;;;16.10;99.90;;;;;;5056625;28;20484;-56
2021/10/02 03:00:56;;;;;;;2.10;0.90;;;16.20;99.90;;;;;;5057026;28;20761;-59
2021/10/02 03:03:28;;;;;;;1.30;0.90;;;16.30;99.90;;;;;;5057078;28;20429;-59
2021/10/02 03:06:00;;;;;;;1.50;1.00;;;16.20;99.90;;;;;;5057273;28;20472;-59
2021/10/02 03:08:32;;;;;;;1.40;0.88;;;16.20;99.90;;;;;;5055433;28;20482;-59
2021/10/02 03:11:03;;;;;;;1.60;1.10;;;16.20;99.90;;;;;;5056946;28;20464;-58
2021/10/02 03:13:33;;;;;;;1.20;0.90;;;16.10;99.90;;;;;;5054641;28;20788;-59
2021/10/02 03:16:02;;;;;;;1.70;1.00;;;16.10;99.90;;;;;;5054802;28;20452;-59
2021/10/02 03:18:34;;;;;;;1.35;1.00;;;15.90;99.90;;;;;;5054944;28;20437;-59
2021/10/02 03:21:02;;;;;;;1.40;0.90;;;15.90;99.90;;;;;;5054157;28;20453;-59
2021/10/02 03:23:30;;;;;;;2.00;0.90;;;16.00;99.90;;;;;;5053309;28;20833;-57
2021/10/02 03:25:58;;;;;;;1.40;0.90;;;16.00;99.90;;;;;;5052529;28;20521;-60
2021/10/02 03:28:25;;;;;;;1.30;0.90;;;16.00;99.90;;;;;;5052046;28;20777;-59
2021/10/02 03:31:12;;;;;;;1.83;1.05;;;16.20;99.90;;;;;;5052578;28;20516;-58
2021/10/02 03:33:42;;;;;;;1.33;0.90;;;16.20;99.90;;;;;;5052407;28;20475;-59
2021/10/02 03:36:09;;;;;;;1.30;1.10;;;16.10;99.90;;;;;;5052121;28;20456;-58
2021/10/02 03:41:22;;;;;;;1.20;1.00;;;15.90;99.90;;;;;;5052441;28;20416;-59
2021/10/02 03:43:49;;;;;;;1.50;1.00;;;15.80;99.90;;;;;;5055323;28;20465;-58
2021/10/02 03:46:17;;;;;;;1.70;1.00;;;15.60;99.90;;;;;;5053977;28;20452;-58
2021/10/02 03:48:46;;;;;;;1.13;0.90;;;15.60;99.90;;;;;;5053282;28;20680;-59
2021/10/02 03:51:13;;;;;;;1.58;0.90;;;15.60;99.90;;;;;;5052550;28;20586;-59
2021/10/02 03:53:41;;;;;;;1.13;0.90;;;15.80;99.90;;;;;;5052900;28;20465;-58
2021/10/02 03:56:09;;;;;;;1.20;0.80;;;15.80;99.90;;;;;;5053054;28;20779;-59
2021/10/02 03:58:37;;;;;;;1.40;1.00;;;15.80;99.90;;;;;;5053252;28;20530;-58
2021/10/02 04:01:04;;;;;;;1.88;0.90;;;15.70;99.90;;;;;;5053637;28;20748;-58
2021/10/02 04:03:32;;;;;;;1.30;0.90;;;15.60;99.90;;;;;;5054208;28;20732;-57
2021/10/02 04:06:00;;;;;;;1.10;0.90;;;15.60;99.90;;;;;;5054705;28;20884;-58
2021/10/02 04:08:28;;;;;;;1.70;1.02;;;15.70;99.90;;;;;;5054946;28;20461;-56
2021/10/02 04:10:55;;;;;;;2.10;0.90;;;15.80;99.90;;;;;;5055931;28;20457;-58
2021/10/02 04:13:22;;;;;;;2.08;0.93;;;15.80;99.90;;;;;;5055054;28;20468;-57
2021/10/02 04:15:50;;;;;;;1.10;0.80;;;15.80;99.90;;;;;;5055541;28;20481;-58
2021/10/02 04:18:17;;;;;;;2.65;0.90;;;15.90;99.90;;;;;;5054616;28;20812;-56
2021/10/02 04:20:44;;;;;;;2.50;1.00;;;15.90;99.90;;;;;;5053803;28;20483;-56
2021/10/02 04:23:13;;;;;;;1.10;0.80;;;15.90;99.90;;;;;;5053736;28;20453;-53
2021/10/02 04:25:40;;;;;;;2.30;1.00;;;15.90;99.90;;;;;;5052761;28;20468;-50
2021/10/02 04:28:08;;;;;;;1.45;0.88;;;15.90;99.90;;;;;;5053573;28;20508;-54
2021/10/02 04:30:35;;;;;;;1.70;1.00;;;15.90;99.90;;;;;;5055021;28;20508;-55
2021/10/02 04:33:02;;;;;;;1.40;0.90;;;15.90;99.90;;;;;;5055712;28;20448;-54
2021/10/02 04:35:30;;;;;;;1.40;1.03;;;15.90;99.90;;;;;;5055980;28;20422;-55
2021/10/02 04:37:58;;;;;;;1.73;1.00;;;16.00;99.90;;;;;;5055147;28;20456;-54
2021/10/02 04:40:26;;;;;;;1.40;1.00;;;16.00;99.90;;;;;;5053911;28;20432;-56
2021/10/02 04:42:54;;;;;;;1.30;0.95;;;15.90;99.90;;;;;;5055085;28;20456;-54
2021/10/02 04:45:21;;;;;;;1.40;1.00;;;15.90;99.90;;;;;;5054592;28;20461;-57
2021/10/02 04:47:49;;;;;;;1.70;1.10;;;16.00;99.90;;;;;;5054904;28;20457;-49
2021/10/02 04:50:16;;;;;;;1.73;1.10;;;15.90;99.90;;;;;;5055280;28;20433;-50
2021/10/02 04:52:44;;;;;;;1.80;1.10;;;15.80;99.90;;;;;;5054898;28;20421;-52
2021/10/02 04:55:11;;;;;;;1.23;1.00;;;15.70;99.90;;;;;;5054971;28;20429;-52
2021/10/02 04:57:40;;;;;;;2.78;1.10;;;15.60;99.90;;;;;;5054369;28;20421;-55
2021/10/02 05:00:11;;;;;;;1.40;0.98;;;15.50;99.90;;;;;;5052688;28;20433;-54
2021/10/02 05:02:38;;;;;;;1.17;0.90;;;15.50;99.90;;;;;;5053668;28;20453;-55
2021/10/02 05:05:07;;;;;;;1.52;1.00;;;15.40;99.90;;;;;;5053311;28;20507;-56
2021/10/02 05:07:34;;;;;;;2.38;0.90;;;15.40;99.90;;;;;;5052546;28;20413;-56
2021/10/02 05:10:02;;;;;;;1.50;1.10;;;15.50;99.90;;;;;;5051023;28;20427;-55
2021/10/02 05:12:29;;;;;;;1.98;1.08;;;15.50;99.90;;;;;;5051760;28;20706;-55
2021/10/02 05:14:58;;;;;;;1.50;1.00;;;15.30;99.90;;;;;;5052486;28;20433;-54
2021/10/02 05:17:25;;;;;;;2.45;0.93;;;15.20;99.90;;;;;;5052764;28;20876;-50
2021/10/02 05:19:53;;;;;;;2.00;1.10;;;15.20;99.90;;;;;;5051682;28;20445;-54
2021/10/02 05:22:20;;;;;;;2.00;1.00;;;15.40;99.90;;;;;;5052267;28;20425;-49
2021/10/02 05:24:48;;;;;;;1.63;1.20;;;15.30;99.90;;;;;;5061603;28;20436;-52
2021/10/02 05:27:15;;;;;;;1.85;1.10;;;15.30;99.90;;;;;;5073032;28;20501;-52
2021/10/02 05:29:45;;;;;;;1.58;1.00;;;15.40;99.90;;;;;;5072723;28;20431;-50
2021/10/02 05:32:14;;;;;;;1.65;0.90;;;15.60;99.90;;;;;;5071383;28;20464;-52
2021/10/02 05:34:42;;;;;;;1.73;0.90;;;15.80;99.90;;;;;;5072132;28;20462;-51
2021/10/02 05:37:10;;;;;;;3.50;1.00;;;15.90;99.90;;;;;;5069739;28;20801;-53
2021/10/02 05:39:37;;;;;;;1.63;0.90;;;16.00;99.90;;;;;;5070285;28;20497;-49
2021/10/02 05:42:05;;;;;;;1.65;1.00;;;16.00;99.90;;;;;;5070725;28;20424;-50
2021/10/02 05:44:33;;;;;;;3.20;1.10;;;16.00;99.90;;;;;;5072337;28;20915;-50
2021/10/02 05:47:01;;;;;;;1.58;1.00;;;16.00;99.90;;;;;;5072638;28;20477;-52
2021/10/02 05:49:30;;;;;;;1.65;0.80;;;15.80;99.90;;;;;;5073644;28;20517;-53
2021/10/02 05:51:57;;;;;;;1.90;1.00;;;15.70;99.90;;;;;;5074947;28;20492;-52
2021/10/02 05:54:25;;;;;;;1.90;1.10;;;15.70;99.90;;;;;;5077613;28;20791;-54
2021/10/02 05:56:52;;;;;;;2.30;1.10;;;15.70;99.90;;;;;;5076585;28;20431;-54
2021/10/02 05:59:19;;;;;;;2.38;1.10;;;15.70;99.90;;;;;;5076758;28;20816;-54
2021/10/02 06:01:47;;;;;;;1.58;0.98;;;15.60;99.90;;;;;;5074894;28;20432;-49
2021/10/02 06:04:14;;;;;;;2.30;1.00;;;15.50;99.90;;;;;;5076419;28;20480;-50
2021/10/02 06:06:43;;;;;;;1.50;0.90;;;15.50;99.90;;;;;;5075233;28;20777;-52
2021/10/02 06:09:11;;;;;;;1.48;0.90;;;15.60;99.90;;;;;;5075748;28;20419;-52
2021/10/02 06:11:38;;;;;;;1.33;1.10;;;15.60;99.90;;;;;;5076451;28;20423;-48
2021/10/02 06:14:06;;;;;;;1.70;1.00;;;15.70;99.90;;;;;;5075788;28;20426;-49
2021/10/02 06:16:35;;;;;;;3.20;0.90;;;15.60;99.90;;;;;;5075480;28;20842;-49
2021/10/02 06:19:03;;;;;;;1.10;0.90;;;15.60;99.90;;;;;;5073270;28;20625;-54
2021/10/02 06:21:31;;;;;;;1.70;1.10;;;15.80;99.90;;;;;;5075320;28;20451;-52
2021/10/02 06:24:00;;;;;;;1.40;0.90;;;15.80;99.90;;;;;;5074784;28;20436;-53
2021/10/02 06:26:29;;;;;;;1.73;1.00;;;15.90;99.90;;;;;;5077106;28;20811;-54
2021/10/02 06:28:56;;;;;;;1.80;0.90;;;15.90;99.90;;;;;;5076942;28;20427;-52
2021/10/02 06:31:25;;;;;;;1.35;1.00;;;15.80;99.90;;;;;;5076024;28;20423;-48
2021/10/02 06:33:52;;;;;;;1.60;0.93;;;15.80;99.90;;;;;;5076832;28;20866;-50
2021/10/02 06:36:19;;;;;;;1.50;1.00;;;15.70;99.90;;;;;;5076174;28;20423;-52
2021/10/02 06:38:47;;;;;;;1.20;1.00;;;15.80;99.90;;;;;;5071560;28;20602;-54
2021/10/02 06:41:16;;;;;;;2.00;1.10;;;16.00;99.90;;;;;;5077637;28;20866;-50
2021/10/02 06:43:44;;;;;;;2.40;1.20;;;16.10;99.90;;;;;;5076834;28;20981;-53
2021/10/02 06:46:11;;;;;;;2.45;1.30;;;16.00;99.90;;;;;;5077293;28;20427;-53
2021/10/02 06:48:40;;;;;;;1.30;0.90;;;15.90;99.90;;;;;;5076735;28;20431;-53
2021/10/02 06:51:08;;;;;;;4.38;1.08;;;15.90;99.90;;;;;;5075844;28;20426;-51
2021/10/02 06:53:35;;;;;;;1.67;1.10;;;15.90;99.90;;;;;;5074653;28;20481;-55
2021/10/02 06:56:04;;;;;;;1.40;0.88;;;16.00;99.90;;;;;;5074834;28;20455;-50
2021/10/02 06:58:33;;;;;;;1.50;1.10;;;15.90;99.90;;;;;;5075677;28;20864;-52
2021/10/02 07:01:01;;;;;;;1.75;1.00;;;15.80;99.90;;;;;;5074923;28;20419;-63
2021/10/02 07:03:28;;;;;;;1.60;1.00;;;15.90;99.90;;;;;;5074510;28;20431;-65
2021/10/02 07:05:56;;;;;;;2.90;1.20;;;16.00;99.90;;;;;;5076690;28;20510;-63
2021/10/02 07:08:23;;;;;;;1.50;1.00;;;15.90;99.90;;;;;;5077544;28;20481;-62
2021/10/02 07:10:51;;;;;;;1.98;1.05;;;15.80;99.90;;;;;;5077661;28;20445;-62
2021/10/02 07:13:18;;;;;;;1.60;1.00;;;15.90;99.90;;;;;;5077087;28;20435;-62
2021/10/02 07:15:47;;;;;;;1.60;1.00;;;15.90;99.90;;;;;;5076869;28;20419;-63
2021/10/02 07:18:36;;;;;;;2.30;1.05;;;16.00;99.90;;;;;;5074651;28;20427;-62
2021/10/02 07:21:03;;;;;;;1.27;1.00;;;15.90;99.90;;;;;;5073938;28;20415;-63
2021/10/02 07:23:32;;;;;;;2.50;1.00;;;15.80;99.90;;;;;;5073349;28;20435;-61
2021/10/02 07:26:00;;;;;;;1.90;1.10;;;15.80;99.90;;;;;;5072437;28;20434;-62
2021/10/02 07:28:53;;;;;;;1.50;1.00;;;15.80;99.90;;;;;;5070777;28;20737;-61
2021/10/02 07:31:22;;;;;;;1.40;1.00;;;16.00;99.90;;;;;;5072617;28;20489;-63
2021/10/02 07:33:50;;;;;;;3.50;1.00;;;16.00;99.90;;;;;;5072121;28;20586;-60
2021/10/02 07:36:18;;;;;;;2.00;1.00;;;16.00;99.90;;;;;;5072637;28;20430;-62
2021/10/02 07:38:46;;;;;;;1.33;1.00;;;16.20;99.90;;;;;;5069180;28;20469;-61
2021/10/02 07:41:15;;;;;;;2.00;1.00;;;16.00;99.90;;;;;;5072811;28;20831;-62
2021/10/02 07:43:44;;;;;;;1.30;0.95;;;16.00;99.90;;;;;;5071485;28;20439;-60
2021/10/02 07:46:45;;;;;;;1.60;0.90;;;15.90;99.90;;;;;;5063824;28;20425;-61
2021/10/02 07:49:12;;;;;;;1.60;0.90;;;15.80;99.90;;;;;;5074685;28;20427;-61
2021/10/02 07:51:40;;;;;;;2.20;1.00;;;15.80;99.90;;;;;;5075292;28;20904;-61
2021/10/02 07:54:08;;;;;;;2.63;1.05;;;16.10;99.90;;;;;;5074729;28;20431;-61
2021/10/02 07:56:38;;;;;;;1.40;0.90;;;16.10;99.90;;;;;;5062306;28;20429;-62
2021/10/02 07:59:06;;;;;;;1.00;0.80;;;16.30;99.90;;;;;;5066397;28;20545;-61
2021/10/02 08:01:35;;;;;;;1.27;0.80;;;16.40;99.90;;;;;;5062828;28;20425;-60
2021/10/02 08:04:09;;;;;;;1.20;0.80;;;16.30;99.90;;;;;;5073031;28;20728;-60
2021/10/02 08:06:38;;;;;;;1.50;0.90;;;16.40;99.90;;;;;;5073375;28;20477;-60
2021/10/02 08:09:07;;;;;;;1.58;0.80;;;16.30;99.90;;;;;;5064777;28;20439;-60
2021/10/02 08:11:34;;;;;;;1.25;0.80;;;16.30;99.90;;;;;;5062964;28;20816;-61
2021/10/02 08:14:06;;;;;;;1.83;0.80;;;16.30;99.90;;;;;;5061437;28;20491;-60
2021/10/02 08:16:34;;;;;;;1.10;0.80;;;16.50;99.90;;;;;;5062478;28;20423;-60
2021/10/02 08:19:07;;;;;;;1.00;0.80;;;16.70;99.90;;;;;;5069383;28;20536;-61
2021/10/02 08:21:38;;;;;;;1.20;0.80;;;16.70;99.90;;;;;;5071344;28;20427;-60
2021/10/02 08:24:06;;;;;;;1.70;0.90;;;16.70;99.90;;;;;;5073093;28;20846;-61
2021/10/02 08:26:34;;;;;;;1.40;0.70;;;16.80;99.90;;;;;;5072582;28;20423;-60
2021/10/02 08:29:04;;;;;;;2.47;0.80;;;17.00;99.90;;;;;;5072878;28;20793;-61
2021/10/02 08:31:33;;;;;;;1.00;0.65;;;17.10;99.90;;;;;;5073437;28;20428;-61
2021/10/02 08:34:00;;;;;;;1.27;0.75;;;17.30;99.90;;;;;;5074498;28;20835;-60
2021/10/02 08:36:29;;;;;;;1.80;0.60;;;17.40;99.90;;;;;;5072668;28;20428;-60
2021/10/02 08:38:57;;;;;;;1.20;0.60;;;17.50;99.90;;;;;;5064129;28;20861;-59
2021/10/02 08:41:28;;;;;;;1.20;0.80;;;17.50;99.90;;;;;;5068562;28;20434;-59
2021/10/02 08:43:56;;;;;;;0.98;0.60;;;17.70;99.90;;;;;;5068845;28;20854;-58
2021/10/02 08:46:30;;;;;;;0.80;0.52;;;17.80;99.90;;;;;;5060295;28;20766;-59
2021/10/02 08:49:30;;;;;;;3.15;0.60;;;17.80;99.90;;;;;;5061714;28;20712;-58
2021/10/02 08:52:23;;;;;;;2.40;0.50;;;17.80;99.90;;;;;;5058307;28;20423;-58
2021/10/02 08:54:54;;;;;;;0.60;0.40;;;17.90;99.90;;;;;;5070567;28;20415;-59
2021/10/02 08:57:24;;;;;;;0.90;0.50;;;18.00;99.90;;;;;;5060507;28;20910;-58
2021/10/02 09:00:05;;;;;;;1.00;0.50;;;18.10;99.90;;;;;;5051681;28;20435;-59
2021/10/02 09:02:33;;;;;;;0.80;0.50;;;18.20;99.90;;;;;;5066023;28;20451;-59
2021/10/02 09:05:00;;;;;;;1.20;0.60;;;18.40;99.90;;;;;;5070329;28;20982;-58
2021/10/02 09:07:30;;;;;;;1.10;0.40;;;18.50;99.90;;;;;;5070499;28;20473;-58
2021/10/02 09:10:02;;;;;;;0.85;0.40;;;18.50;99.90;;;;;;5057887;28;20907;-58
2021/10/02 09:12:31;;;;;;;0.90;0.50;;;18.60;99.90;;;;;;5062534;28;20870;-58
2021/10/02 09:15:02;;;;;;;0.90;0.40;;;18.70;99.90;;;;;;5067101;28;20525;-58
2021/10/02 09:17:31;;;;;;;1.70;0.50;;;18.70;99.90;;;;;;5065350;28;20751;-58
2021/10/02 09:19:59;;;;;;;3.17;0.50;;;18.70;99.90;;;;;;5061823;28;20431;-57
2021/10/02 09:22:29;;;;;;;0.70;0.40;;;18.80;99.90;;;;;;5065473;28;20526;-57
2021/10/02 09:24:59;;;;;;;0.80;0.50;;;18.90;99.90;;;;;;5063921;28;20452;-59
2021/10/02 09:27:30;;;;;;;1.77;0.50;;;19.00;99.90;;;;;;5068610;28;20427;-58
2021/10/02 09:30:02;;;;;;;0.70;0.40;;;19.10;99.90;;;;;;5070035;28;20436;-59
2021/10/02 09:32:31;;;;;;;0.80;0.40;;;19.10;99.90;;;;;;5071136;28;20502;-59
2021/10/02 09:35:01;;;;;;;0.70;0.40;;;19.10;99.90;;;;;;5070979;28;20439;-59
2021/10/02 09:37:35;;;;;;;0.70;0.40;;;19.20;99.90;;;;;;5071283;28;20485;-59
2021/10/02 09:40:18;;;;;;;0.70;0.40;;;19.40;99.90;;;;;;5070766;28;20864;-59
2021/10/02 09:42:51;;;;;;;0.70;0.40;;;19.60;99.90;;;;;;5069808;28;20784;-58
2021/10/02 09:45:30;;;;;;;0.60;0.40;;;19.80;99.90;;;;;;5073010;28;20512;-59
2021/10/02 09:48:02;;;;;;;1.00;0.50;;;19.70;99.90;;;;;;5072787;28;20499;-59
2021/10/02 09:50:44;;;;;;;0.60;0.40;;;19.80;99.90;;;;;;5071810;28;20436;-59
2021/10/02 09:53:15;;;;;;;1.70;0.50;;;19.90;99.90;;;;;;5072052;28;20423;-58
2021/10/02 09:55:45;;;;;;;1.60;0.50;;;20.00;99.90;;;;;;5064721;28;20491;-58
2021/10/02 09:58:18;;;;;;;0.77;0.45;;;20.30;99.90;;;;;;5070515;28;20587;-60
2021/10/02 10:00:50;;;;;;;2.80;2.00;;;20.40;99.90;;;;;;5070407;28;20478;-59
2021/10/02 10:03:19;;;;;;;0.90;0.55;;;20.60;99.90;;;;;;5071035;28;20929;-59
2021/10/02 10:06:01;;;;;;;1.30;0.40;;;20.70;99.90;;;;;;5068757;28;20431;-59
2021/10/02 10:08:34;;;;;;;1.10;0.60;;;20.70;99.90;;;;;;5069217;28;20424;-59
2021/10/02 10:11:12;;;;;;;0.90;0.50;;;20.70;99.90;;;;;;5073480;28;20427;-57
2021/10/02 10:13:41;;;;;;;1.20;0.60;;;20.90;99.90;;;;;;5071566;28;20514;-59
2021/10/02 10:16:13;;;;;;;3.33;0.60;;;20.90;99.90;;;;;;5070185;28;20492;-58
2021/10/02 10:18:48;;;;;;;0.70;0.50;;;21.00;99.90;;;;;;5070246;28;20524;-59
2021/10/02 10:21:32;;;;;;;0.90;0.60;;;21.20;99.90;;;;;;5054986;28;20745;-58
2021/10/02 10:24:07;;;;;;;0.80;0.60;;;21.30;99.90;;;;;;5060420;28;20423;-59
2021/10/02 10:26:45;;;;;;;1.90;0.60;;;21.20;99.90;;;;;;5059360;28;20439;-60
2021/10/02 10:29:16;;;;;;;0.90;0.60;;;21.20;99.90;;;;;;5062738;28;20423;-58
2021/10/02 10:31:59;;;;;;;1.30;0.70;;;21.20;99.90;;;;;;5064153;28;20427;-59
2021/10/02 10:34:41;;;;;;;1.10;0.70;;;21.30;99.90;;;;;;5068333;28;20446;-58
2021/10/02 10:37:11;;;;;;;1.70;0.60;;;21.50;99.90;;;;;;5069504;28;20435;-60
2021/10/02 10:39:57;;;;;;;0.90;0.60;;;21.70;99.90;;;;;;5072297;28;20443;-58
2021/10/02 10:42:28;;;;;;;1.10;0.70;;;21.70;99.90;;;;;;5069279;28;20436;-59
2021/10/02 10:45:01;;;;;;;0.90;0.70;;;21.90;99.90;;;;;;5069555;28;20423;-58
2021/10/02 10:47:35;;;;;;;1.20;0.57;;;22.00;99.90;;;;;;5073710;28;20428;-59
2021/10/02 10:50:12;;;;;;;1.80;0.70;;;22.00;99.90;;;;;;5072927;28;20578;-55
2021/10/02 10:52:46;;;;;;;1.35;0.60;;;22.10;99.90;;;;;;5065304;28;20729;-55
2021/10/02 10:55:29;;;;;;;1.45;0.70;;;22.10;99.90;;;;;;5073590;28;20426;-55
2021/10/02 10:58:02;;;;;;;1.00;0.60;;;22.00;99.90;;;;;;5073585;28;20530;-55
2021/10/02 11:00:45;;;;;;;1.92;0.60;;;22.10;99.90;;;;;;5073649;28;20432;-52
2021/10/02 11:03:14;;;;;;;0.80;0.70;;;22.30;99.90;;;;;;5067020;28;20457;-54
2021/10/02 11:05:51;;;;;;;1.20;0.60;;;22.10;99.90;;;;;;5051926;28;20428;-49
2021/10/02 11:08:23;;;;;;;1.30;0.60;;;22.00;99.90;;;;;;5053605;28;20503;-53
2021/10/02 11:10:59;;;;;;;0.90;0.70;;;22.10;99.90;;;;;;5064071;28;20440;-53
2021/10/02 11:13:59;;;;;;;0.90;0.70;;;22.20;99.90;;;;;;5062871;28;20467;-56
2021/10/02 11:17:00;;;;;;;0.80;0.50;;;22.30;99.90;;;;;;5069515;28;20498;-56
2021/10/02 11:19:33;;;;;;;1.10;0.60;;;22.30;99.90;;;;;;5068606;28;20480;-55
2021/10/02 11:22:26;;;;;;;3.20;0.70;;;22.30;99.90;;;;;;5070271;28;20427;-54
2021/10/02 11:24:53;;;;;;;1.45;0.70;;;22.30;99.90;;;;;;5069811;28;20432;-52
2021/10/02 11:27:26;;;;;;;1.20;0.70;;;22.50;99.90;;;;;;5071750;28;20430;-53
2021/10/02 11:30:14;;;;;;;0.90;0.55;;;22.60;99.90;;;;;;5062990;28;20431;-55
2021/10/02 11:32:42;;;;;;;1.20;0.60;;;22.60;99.90;;;;;;5069587;28;20423;-51
2021/10/02 11:35:22;;;;;;;0.90;0.60;;;22.70;99.90;;;;;;5068852;28;20734;-56
2021/10/02 11:38:05;;;;;;;1.00;0.70;;;22.90;99.90;;;;;;5071506;28;20927;-57
2021/10/02 11:40:54;;;;;;;1.50;0.60;;;23.10;99.90;;;;;;5053646;28;20499;-54
2021/10/02 11:43:33;;;;;;;0.70;0.50;;;23.20;99.90;;;;;;5054832;28;20570;-51
2021/10/02 11:46:10;;;;;;;1.20;0.60;;;23.30;99.90;;;;;;5071514;28;20496;-56
2021/10/02 11:48:50;;;;;;;0.90;0.57;;;23.40;99.90;;;;;;5068229;28;20435;-55
2021/10/02 11:51:28;;;;;;;0.80;0.60;;;23.40;99.90;;;;;;5052674;28;20513;-51
2021/10/02 11:54:12;;;;;;;1.10;0.60;;;23.10;99.90;;;;;;5059596;28;20443;-54
2021/10/02 11:56:44;;;;;;;1.20;0.55;;;23.10;99.90;;;;;;5067789;28;20425;-52
2021/10/02 11:59:25;;;;;;;0.80;0.60;;;23.40;99.90;;;;;;5066659;28;20428;-54
2021/10/02 12:01:54;;;;;;;0.95;0.60;;;23.20;99.90;;;;;;5069783;28;20819;-52
2021/10/02 12:04:26;;;;;;;0.82;0.60;;;23.10;99.90;;;;;;5072800;28;20518;-51
2021/10/02 12:06:56;;;;;;;0.80;0.60;;;23.20;99.90;;;;;;5071943;28;20423;-52
2021/10/02 12:09:29;;;;;;;1.05;0.60;;;23.10;99.90;;;;;;5073028;28;20431;-53
2021/10/02 12:11:58;;;;;;;2.05;0.60;;;22.80;99.90;;;;;;5075157;28;20419;-52
2021/10/02 12:14:29;;;;;;;1.00;0.52;;;22.60;99.90;;;;;;5074923;28;20496;-53
2021/10/02 12:17:00;;;;;;;1.00;0.60;;;22.70;99.90;;;;;;5073428;28;20515;-55
2021/10/02 12:19:29;;;;;;;1.10;0.60;;;22.80;99.90;;;;;;5073629;28;20441;-53
2021/10/02 12:22:01;;;;;;;0.85;0.60;;;22.90;99.90;;;;;;5073789;28;20847;-56
2021/10/02 12:24:36;;;;;;;0.88;0.60;;;22.90;99.90;;;;;;5062332;28;20483;-56
2021/10/02 12:27:09;;;;;;;1.20;0.50;;;23.00;99.90;;;;;;5063033;28;20425;-55
2021/10/02 12:29:45;;;;;;;0.90;0.57;;;23.00;99.90;;;;;;5061606;28;20436;-52
2021/10/02 12:32:19;;;;;;;0.98;0.50;;;23.00;99.90;;;;;;5061457;28;20917;-56
2021/10/02 12:34:49;;;;;;;0.80;0.50;;;22.90;99.90;;;;;;5069781;28;20945;-57
2021/10/02 12:37:23;;;;;;;1.05;0.60;;;23.00;99.90;;;;;;5058243;28;20427;-55
2021/10/02 12:39:54;;;;;;;1.27;0.50;;;23.00;99.90;;;;;;5065266;28;20438;-54
2021/10/02 12:42:35;;;;;;;0.90;0.60;;;23.10;99.90;;;;;;5073812;28;20438;-54
2021/10/02 12:45:12;;;;;;;1.05;0.50;;;23.00;99.90;;;;;;5073921;28;20431;-54
2021/10/02 12:47:47;;;;;;;0.80;0.60;;;22.80;99.90;;;;;;5064350;28;20424;-55
2021/10/02 12:50:25;;;;;;;1.08;0.60;;;22.60;99.90;;;;;;5060021;28;20421;-53
2021/10/02 12:52:56;;;;;;;1.70;0.60;;;22.70;99.90;;;;;;5063538;28;20743;-55
2021/10/02 12:55:29;;;;;;;0.93;0.68;;;22.90;99.90;;;;;;5058864;28;20443;-54
2021/10/02 12:57:59;;;;;;;1.40;0.60;;;23.00;99.90;;;;;;5058867;28;20509;-56
2021/10/02 13:00:29;;;;;;;0.90;0.60;;;23.10;99.90;;;;;;5064915;28;20459;-55
2021/10/02 13:03:09;;;;;;;0.80;0.60;;;23.30;99.90;;;;;;5057726;28;20429;-55
2021/10/02 13:05:38;;;;;;;0.90;0.60;;;23.40;99.90;;;;;;5063455;28;20436;-55
2021/10/02 13:08:09;;;;;;;1.50;0.60;;;23.40;99.90;;;;;;5064708;28;20484;-54
2021/10/02 13:10:42;;;;;;;0.80;0.50;;;23.40;99.90;;;;;;5065103;28;20876;-56
2021/10/02 13:13:14;;;;;;;0.80;0.50;;;23.30;99.90;;;;;;5058752;28;20425;-54
2021/10/02 13:16:06;;;;;;;1.35;0.60;;;23.30;99.90;;;;;;5059473;28;20468;-53
2021/10/02 13:18:34;;;;;;;0.90;0.50;;;23.40;99.90;;;;;;5060257;28;20764;-56
2021/10/02 13:21:32;;;;;;;1.10;0.60;;;23.40;99.90;;;;;;5061739;28;21879;-57
2021/10/02 13:24:10;;;;;;;0.70;0.50;;;23.20;99.90;;;;;;5064219;28;20428;-54
2021/10/02 13:27:01;;;;;;;1.67;0.60;;;23.20;99.90;;;;;;5068033;28;20423;-55
2021/10/02 13:29:34;;;;;;;0.70;0.50;;;23.30;99.90;;;;;;5068905;28;20434;-55
2021/10/02 13:32:17;;;;;;;0.70;0.50;;;23.20;99.90;;;;;;5061627;28;20812;-56
2021/10/02 13:35:02;;;;;;;0.80;0.50;;;23.20;99.90;;;;;;5061787;28;20771;-56
2021/10/02 13:37:29;;;;;;;2.10;0.52;;;23.10;99.90;;;;;;5059127;28;20430;-57
2021/10/02 13:42:48;;;;;;;0.70;0.40;;;23.20;99.90;;;;;;5059390;28;20506;-58
2021/10/02 13:45:18;;;;;;;1.15;0.52;;;23.10;99.90;;;;;;5058924;28;20433;-58
2021/10/02 13:48:09;;;;;;;2.10;0.50;;;23.10;99.90;;;;;;5062378;28;20860;-57
2021/10/02 13:50:44;;;;;;;0.80;0.60;;;23.10;99.90;;;;;;5060969;28;20515;-57
2021/10/02 13:53:13;;;;;;;0.97;0.60;;;23.00;99.90;;;;;;5065885;28;20449;-56
2021/10/02 13:55:47;;;;;;;0.90;0.50;;;23.00;99.90;;;;;;5069647;28;20485;-55
2021/10/02 13:58:20;;;;;;;0.80;0.50;;;23.00;99.90;;;;;;5062017;28;20429;-57
2021/10/02 14:00:51;;;;;;;0.80;0.60;;;22.90;99.90;;;;;;5057600;28;20474;-55
2021/10/02 14:03:25;;;;;;;0.70;0.50;;;22.90;99.90;;;;;;5059202;28;20466;-56
2021/10/02 14:06:05;;;;;;;1.95;0.50;;;23.00;99.90;;;;;;5059371;28;20424;-56
2021/10/02 14:08:34;;;;;;;1.10;0.80;;;23.10;99.90;;;;;;5052902;28;20428;-53